Time;durP1;ratioP1;P1;durP2;ratioP2;P2;SDS_P1;SDS_P2;PMS_P1;PMS_P2;Temp;Humidity;BMP_temperature;BMP_pressure;BME280_temperature;BME280_humidity;BME280_pressure;Samples;Min_cycle;Max_cycle;Signal;HPM_P1;HPM_P2
2023/06/11 00:01:14;;;;;;;8.50;7.43;;;19.10;99.90;;;;;;5133289;27;20061;-67
2023/06/11 00:03:40;;;;;;;11.45;7.05;;;19.10;99.90;;;;;;5133345;27;20043;-67
2023/06/11 00:06:07;;;;;;;11.70;6.75;;;19.00;99.90;;;;;;5133360;27;20047;-67
2023/06/11 00:08:33;;;;;;;8.13;7.28;;;19.00;99.90;;;;;;5135030;27;20090;-69
2023/06/11 00:10:59;;;;;;;9.93;7.18;;;19.00;99.90;;;;;;5136428;27;20042;-67
2023/06/11 00:13:25;;;;;;;9.38;6.93;;;19.00;99.90;;;;;;5137559;27;20046;-69
2023/06/11 00:15:51;;;;;;;10.20;7.80;;;18.90;99.90;;;;;;5137547;27;20043;-67
2023/06/11 00:18:17;;;;;;;8.90;7.97;;;18.90;99.90;;;;;;5137521;27;20050;-69
2023/06/11 00:20:43;;;;;;;9.60;8.63;;;18.90;99.90;;;;;;5137527;27;20043;-67
2023/06/11 00:23:09;;;;;;;11.55;8.95;;;18.90;99.90;;;;;;5135940;27;20043;-68
2023/06/11 00:25:35;;;;;;;13.10;8.90;;;18.90;99.90;;;;;;5137300;27;20042;-67
2023/06/11 00:28:01;;;;;;;10.13;7.97;;;18.90;99.90;;;;;;5137172;27;20035;-66
2023/06/11 00:30:26;;;;;;;8.32;7.20;;;18.90;99.90;;;;;;5137251;27;20546;-67
2023/06/11 00:32:52;;;;;;;8.82;7.85;;;18.90;99.90;;;;;;5137181;27;20039;-67
2023/06/11 00:35:18;;;;;;;8.80;7.90;;;18.90;99.90;;;;;;5136742;27;20138;-68
2023/06/11 00:37:43;;;;;;;9.70;8.50;;;18.80;99.90;;;;;;5136299;27;20043;-67
2023/06/11 00:40:10;;;;;;;10.05;7.70;;;18.90;99.90;;;;;;5137408;27;20039;-67
2023/06/11 00:42:36;;;;;;;10.88;8.50;;;18.90;99.90;;;;;;5136955;27;20055;-67
2023/06/11 00:45:05;;;;;;;11.63;8.75;;;18.90;99.90;;;;;;5137503;27;20046;-66
2023/06/11 00:47:32;;;;;;;12.63;8.82;;;18.90;99.90;;;;;;5135817;27;20043;-66
2023/06/11 00:50:00;;;;;;;8.90;8.00;;;18.90;99.90;;;;;;5137342;27;20059;-66
2023/06/11 00:52:26;;;;;;;12.60;9.27;;;18.90;99.90;;;;;;5137453;27;20039;-67
2023/06/11 00:54:52;;;;;;;9.55;8.30;;;18.90;99.90;;;;;;5143265;27;20046;-67
2023/06/11 00:57:22;;;;;;;9.73;8.65;;;18.80;99.90;;;;;;5157526;27;20061;-69
2023/06/11 00:59:50;;;;;;;10.57;8.88;;;18.80;99.90;;;;;;5157597;27;20082;-67
2023/06/11 01:02:40;;;;;;;9.73;8.73;;;18.80;99.90;;;;;;5138861;27;20047;-69
2023/06/11 01:05:07;;;;;;;11.80;8.68;;;18.80;99.90;;;;;;5157859;27;20047;-66
2023/06/11 01:07:36;;;;;;;8.32;7.53;;;18.80;99.90;;;;;;5157817;27;20122;-67
2023/06/11 01:10:03;;;;;;;9.75;8.43;;;18.70;99.90;;;;;;5157021;27;20091;-66
2023/06/11 01:12:28;;;;;;;9.93;7.93;;;18.70;99.90;;;;;;5157176;27;20475;-67
2023/06/11 01:14:54;;;;;;;9.27;8.25;;;18.70;99.90;;;;;;5157035;27;20102;-67
2023/06/11 01:17:34;;;;;;;11.35;8.93;;;18.60;99.90;;;;;;5157114;27;20061;-68
2023/06/11 01:20:12;;;;;;;8.57;7.70;;;18.60;99.90;;;;;;5157306;27;20095;-68
2023/06/11 01:23:06;;;;;;;10.82;9.23;;;18.60;99.90;;;;;;5139287;27;20051;-67
2023/06/11 01:25:54;;;;;;;9.55;8.10;;;18.50;99.90;;;;;;5121350;27;20099;-67
2023/06/11 01:28:24;;;;;;;10.30;9.27;;;18.50;99.90;;;;;;5138766;27;20035;-68
2023/06/11 01:30:51;;;;;;;15.20;9.77;;;18.40;99.90;;;;;;5156936;27;20051;-67
2023/06/11 01:33:19;;;;;;;10.05;8.85;;;18.40;99.90;;;;;;5156932;27;20106;-67
2023/06/11 01:35:46;;;;;;;11.15;9.27;;;18.40;99.90;;;;;;5138993;27;20047;-67
2023/06/11 01:38:13;;;;;;;10.30;9.32;;;18.40;99.90;;;;;;5138614;27;20042;-67
2023/06/11 01:40:39;;;;;;;11.60;10.38;;;18.30;99.90;;;;;;5156688;27;20102;-67
2023/06/11 01:43:05;;;;;;;11.32;10.23;;;18.30;99.90;;;;;;5156399;27;20041;-67
2023/06/11 01:45:36;;;;;;;11.15;9.85;;;18.30;99.90;;;;;;5138574;27;20038;-67
2023/06/11 01:48:02;;;;;;;12.50;10.38;;;18.20;99.90;;;;;;5157046;27;20086;-67
2023/06/11 01:50:28;;;;;;;15.85;9.98;;;18.20;99.90;;;;;;5156699;27;20078;-67
2023/06/11 01:52:53;;;;;;;12.90;10.20;;;18.10;99.90;;;;;;5156456;27;20045;-67
2023/06/11 01:55:19;;;;;;;10.43;9.52;;;18.10;99.90;;;;;;5155878;27;20054;-67
2023/06/11 01:57:46;;;;;;;11.20;9.48;;;18.00;99.90;;;;;;5156500;27;20392;-68
2023/06/11 02:00:12;;;;;;;12.43;10.15;;;17.90;99.90;;;;;;5156339;27;20135;-68
2023/06/11 02:02:42;;;;;;;12.98;10.38;;;17.90;99.90;;;;;;5156053;27;20082;-66
2023/06/11 02:05:08;;;;;;;14.73;9.93;;;17.90;99.90;;;;;;5156223;27;20081;-66
2023/06/11 02:07:35;;;;;;;13.30;10.02;;;17.80;99.90;;;;;;5156283;27;20043;-67
2023/06/11 02:10:00;;;;;;;11.68;10.25;;;17.80;99.90;;;;;;5156440;27;20118;-68
2023/06/11 02:12:26;;;;;;;10.38;9.48;;;17.80;99.90;;;;;;5137201;27;20039;-66
2023/06/11 02:14:52;;;;;;;11.05;10.05;;;17.70;99.90;;;;;;5156410;27;20043;-66
2023/06/11 02:17:18;;;;;;;10.40;9.25;;;17.70;99.90;;;;;;5155815;27;20057;-66
2023/06/11 02:19:43;;;;;;;11.50;9.98;;;17.70;99.90;;;;;;5155849;27;20042;-66
2023/06/11 02:22:09;;;;;;;10.25;9.10;;;17.70;99.90;;;;;;5155725;27;20043;-66
2023/06/11 02:24:35;;;;;;;10.75;9.65;;;17.60;99.90;;;;;;5155756;27;20039;-66
2023/06/11 02:27:01;;;;;;;11.55;10.15;;;17.70;99.90;;;;;;5138158;27;20428;-67
2023/06/11 02:29:26;;;;;;;11.18;10.07;;;17.60;99.90;;;;;;5155702;27;20046;-68
2023/06/11 02:31:52;;;;;;;13.48;11.07;;;17.60;99.90;;;;;;5155035;27;20042;-66
2023/06/11 02:34:18;;;;;;;11.57;9.98;;;17.60;99.90;;;;;;5155293;27;20042;-67
2023/06/11 02:36:43;;;;;;;10.88;9.80;;;17.60;99.90;;;;;;5155571;27;20043;-66
2023/06/11 02:39:09;;;;;;;10.50;9.40;;;17.60;99.90;;;;;;5137419;27;20156;-66
2023/06/11 02:41:34;;;;;;;11.45;10.20;;;17.60;99.90;;;;;;5155547;27;20042;-66
2023/06/11 02:44:00;;;;;;;10.05;9.15;;;17.60;99.90;;;;;;5120136;27;20122;-67
2023/06/11 02:46:26;;;;;;;10.73;8.75;;;17.50;99.90;;;;;;5155322;27;20065;-66
2023/06/11 02:48:51;;;;;;;11.32;10.38;;;17.50;99.90;;;;;;5155357;27;20047;-67
2023/06/11 02:51:17;;;;;;;10.80;9.68;;;17.50;99.90;;;;;;5155433;27;20047;-66
2023/06/11 02:53:43;;;;;;;12.00;10.90;;;17.50;99.90;;;;;;5155599;27;20066;-66
2023/06/11 02:56:09;;;;;;;11.05;9.98;;;17.50;99.90;;;;;;5155447;27;20051;-66
2023/06/11 02:58:35;;;;;;;9.25;8.35;;;17.40;99.90;;;;;;5137481;27;20471;-67
2023/06/11 03:01:00;;;;;;;11.15;10.02;;;17.40;99.90;;;;;;5119873;27;20078;-67
2023/06/11 03:03:26;;;;;;;11.18;10.13;;;17.30;99.90;;;;;;5136920;27;20107;-66
2023/06/11 03:05:52;;;;;;;11.57;10.43;;;17.30;99.90;;;;;;5155264;27;20106;-66
2023/06/11 03:08:17;;;;;;;11.43;10.25;;;17.30;99.90;;;;;;5154913;27;20133;-66
2023/06/11 03:10:43;;;;;;;11.95;10.75;;;17.30;99.90;;;;;;5155249;27;20047;-66
2023/06/11 03:13:09;;;;;;;12.27;11.05;;;17.30;99.90;;;;;;5155259;27;20046;-66
2023/06/11 03:15:34;;;;;;;12.30;11.10;;;17.30;99.90;;;;;;5154930;27;20042;-66
2023/06/11 03:18:00;;;;;;;11.80;10.65;;;17.30;99.90;;;;;;5154773;27;20501;-67
2023/06/11 03:20:26;;;;;;;12.25;10.82;;;17.20;99.90;;;;;;5154799;27;20043;-66
2023/06/11 03:22:51;;;;;;;11.35;10.35;;;17.20;99.90;;;;;;5154732;27;20459;-67
2023/06/11 03:25:17;;;;;;;13.02;11.80;;;17.20;99.90;;;;;;5155095;27;20513;-66
2023/06/11 03:27:43;;;;;;;11.82;10.10;;;17.10;99.90;;;;;;5154982;27;20045;-67
2023/06/11 03:30:10;;;;;;;12.20;11.07;;;17.10;99.90;;;;;;5154589;27;20122;-66
2023/06/11 03:32:35;;;;;;;12.75;11.55;;;17.10;99.90;;;;;;5154543;27;20103;-66
2023/06/11 03:35:01;;;;;;;12.10;10.80;;;17.10;99.90;;;;;;5154563;27;20043;-66
2023/06/11 03:37:27;;;;;;;12.57;11.13;;;17.10;99.90;;;;;;5154610;27;20043;-66
2023/06/11 03:39:52;;;;;;;13.20;11.85;;;17.10;99.90;;;;;;5154949;27;20134;-66
2023/06/11 03:42:18;;;;;;;11.82;10.63;;;17.10;99.90;;;;;;5154111;27;20042;-66
2023/06/11 03:44:44;;;;;;;13.23;11.60;;;17.10;99.90;;;;;;5153922;27;20050;-66
2023/06/11 03:47:09;;;;;;;11.23;10.23;;;17.10;99.90;;;;;;5154127;27;20098;-67
2023/06/11 03:49:35;;;;;;;13.15;11.85;;;17.10;99.90;;;;;;5102060;27;20038;-66
2023/06/11 03:52:01;;;;;;;13.38;11.05;;;17.10;99.90;;;;;;5154265;27;20463;-67
2023/06/11 03:54:26;;;;;;;13.02;11.73;;;17.10;99.90;;;;;;5136003;27;20058;-67
2023/06/11 03:56:52;;;;;;;11.95;10.80;;;17.20;99.90;;;;;;5135413;27;20056;-66
2023/06/11 03:59:18;;;;;;;11.43;10.23;;;17.20;99.90;;;;;;5154325;27;20106;-66
2023/06/11 04:01:44;;;;;;;12.32;10.93;;;17.20;99.90;;;;;;5154320;27;20409;-68
2023/06/11 04:04:09;;;;;;;14.10;11.55;;;17.20;99.90;;;;;;5154070;27;20034;-66
2023/06/11 04:06:37;;;;;;;13.43;12.13;;;17.20;99.90;;;;;;5154211;27;20043;-67
2023/06/11 04:09:03;;;;;;;12.15;10.98;;;17.20;99.90;;;;;;5154112;27;20491;-67
2023/06/11 04:11:29;;;;;;;11.93;10.75;;;17.20;99.90;;;;;;5154152;27;20042;-68
2023/06/11 04:13:55;;;;;;;12.50;11.20;;;17.20;99.90;;;;;;5154321;27;20046;-68
2023/06/11 04:16:20;;;;;;;12.35;10.93;;;17.30;99.90;;;;;;5154264;27;20443;-67
2023/06/11 04:18:47;;;;;;;12.30;11.02;;;17.30;99.90;;;;;;5135937;27;20444;-67
2023/06/11 04:21:13;;;;;;;12.90;11.60;;;17.30;99.90;;;;;;5153926;27;20039;-67
2023/06/11 04:23:40;;;;;;;13.95;12.48;;;17.30;99.90;;;;;;5153922;27;20035;-67
2023/06/11 04:26:09;;;;;;;16.40;11.60;;;17.40;99.90;;;;;;5153961;27;20051;-67
2023/06/11 04:28:36;;;;;;;13.05;11.75;;;17.40;99.90;;;;;;5136372;27;20130;-67
2023/06/11 04:31:06;;;;;;;13.18;11.82;;;17.50;99.90;;;;;;5153916;27;20043;-67
2023/06/11 04:33:32;;;;;;;12.13;11.13;;;17.50;99.90;;;;;;5153940;27;20053;-68
2023/06/11 04:36:04;;;;;;;12.93;11.52;;;17.60;99.90;;;;;;5153800;27;20062;-67
2023/06/11 04:38:30;;;;;;;13.45;12.18;;;17.60;99.90;;;;;;5153838;27;20050;-68
2023/06/11 04:40:57;;;;;;;14.30;12.88;;;17.70;99.90;;;;;;5153794;27;20054;-67
2023/06/11 04:43:23;;;;;;;13.20;11.80;;;17.70;99.90;;;;;;5153618;27;20043;-67
2023/06/11 04:45:55;;;;;;;15.18;13.57;;;17.80;99.90;;;;;;5153792;27;20121;-67
2023/06/11 04:48:22;;;;;;;13.63;12.27;;;17.90;99.90;;;;;;5154173;27;20428;-68
2023/06/11 04:50:51;;;;;;;14.02;12.60;;;17.50;99.90;;;;;;5135278;27;20159;-67
2023/06/11 04:53:22;;;;;;;12.00;10.90;;;18.00;99.90;;;;;;5153559;27;20548;-67
2023/06/11 04:55:54;;;;;;;12.88;11.57;;;18.10;99.90;;;;;;5156771;27;20122;-68
2023/06/11 04:58:24;;;;;;;13.10;11.80;;;18.10;99.90;;;;;;5157500;27;20093;-67
2023/06/11 05:00:51;;;;;;;13.05;11.73;;;18.20;99.90;;;;;;5157708;27;20102;-67
2023/06/11 05:03:18;;;;;;;12.60;11.35;;;18.20;99.90;;;;;;5157669;27;20038;-67
2023/06/11 05:05:49;;;;;;;13.00;11.75;;;18.30;99.90;;;;;;5157470;27;20089;-66
2023/06/11 05:08:20;;;;;;;12.32;11.18;;;18.40;99.90;;;;;;5138847;27;20054;-68
2023/06/11 05:10:46;;;;;;;12.52;11.18;;;19.00;99.90;;;;;;5157655;27;20110;-67
2023/06/11 05:13:12;;;;;;;13.68;12.38;;;18.50;99.90;;;;;;5139295;27;20121;-67
2023/06/11 05:15:38;;;;;;;15.68;12.30;;;18.60;99.90;;;;;;5156978;27;20053;-67
2023/06/11 05:18:03;;;;;;;13.52;12.00;;;18.60;99.90;;;;;;5157189;27;20038;-67
2023/06/11 05:20:29;;;;;;;14.18;12.68;;;18.70;99.90;;;;;;5138757;27;20047;-67
2023/06/11 05:22:59;;;;;;;13.30;12.00;;;18.80;99.90;;;;;;5156894;27;20138;-67
2023/06/11 05:25:28;;;;;;;13.68;12.25;;;18.90;99.90;;;;;;5157121;27;20082;-67
2023/06/11 05:27:57;;;;;;;14.23;12.15;;;19.00;99.90;;;;;;5138783;27;20047;-68
2023/06/11 05:30:25;;;;;;;13.93;10.80;;;19.00;99.90;;;;;;5156904;27;20455;-68
2023/06/11 05:32:51;;;;;;;12.20;11.02;;;19.20;99.90;;;;;;5156885;27;20054;-67
2023/06/11 05:35:17;;;;;;;12.88;11.50;;;19.30;99.90;;;;;;5138586;27;20049;-68
2023/06/11 05:37:44;;;;;;;12.25;11.02;;;19.30;99.90;;;;;;5156726;27;20043;-68
2023/06/11 05:40:11;;;;;;;15.65;11.23;;;19.50;99.90;;;;;;5157074;27;20082;-68
2023/06/11 05:42:37;;;;;;;12.38;11.13;;;19.60;99.90;;;;;;5138487;27;20058;-67
2023/06/11 05:45:04;;;;;;;12.90;11.70;;;19.70;99.90;;;;;;5156464;27;20092;-67
2023/06/11 05:47:29;;;;;;;17.85;13.13;;;19.80;99.90;;;;;;5156418;27;20118;-67
2023/06/11 05:49:55;;;;;;;14.68;12.23;;;19.90;99.90;;;;;;5156568;27;20251;-67
2023/06/11 05:52:22;;;;;;;13.73;12.30;;;20.00;99.90;;;;;;5156239;27;20043;-67
2023/06/11 05:54:48;;;;;;;15.93;11.90;;;20.10;99.90;;;;;;5156212;27;20058;-69
2023/06/11 05:57:18;;;;;;;13.30;11.55;;;20.20;99.90;;;;;;5156262;27;20376;-67
2023/06/11 05:59:44;;;;;;;12.98;11.20;;;20.30;99.90;;;;;;5156755;27;20053;-67
2023/06/11 06:02:10;;;;;;;13.90;10.88;;;20.50;99.90;;;;;;5156820;27;20376;-67
2023/06/11 06:04:36;;;;;;;12.60;10.43;;;20.60;99.90;;;;;;5155957;27;20493;-67
2023/06/11 06:07:02;;;;;;;15.52;11.32;;;20.80;99.90;;;;;;5155123;27;20058;-69
2023/06/11 06:09:27;;;;;;;12.10;10.75;;;20.90;99.90;;;;;;5156395;27;20050;-68
2023/06/11 06:11:53;;;;;;;12.10;10.90;;;21.10;99.90;;;;;;5156577;27;20039;-68
2023/06/11 06:14:18;;;;;;;12.73;10.55;;;21.30;99.90;;;;;;5120965;27;20091;-68
2023/06/11 06:16:44;;;;;;;12.38;10.40;;;21.60;99.90;;;;;;5156265;27;20100;-67
2023/06/11 06:19:10;;;;;;;12.48;11.02;;;22.00;99.90;;;;;;5155789;27;20063;-68
2023/06/11 06:21:35;;;;;;;12.60;10.82;;;23.10;99.90;;;;;;5155608;27;20054;-69
2023/06/11 06:24:01;;;;;;;16.02;10.40;;;24.20;99.90;;;;;;5155552;27;20038;-68
2023/06/11 06:26:28;;;;;;;10.55;9.45;;;25.10;99.90;;;;;;5137576;27;20042;-68
2023/06/11 06:28:53;;;;;;;11.18;10.02;;;25.80;99.90;;;;;;5155700;27;20172;-68
2023/06/11 06:31:20;;;;;;;13.82;10.57;;;26.50;99.20;;;;;;5155544;27;20086;-68
2023/06/11 06:33:46;;;;;;;11.00;9.88;;;26.90;98.10;;;;;;5155526;27;20049;-68
2023/06/11 06:36:12;;;;;;;10.25;9.05;;;27.40;97.20;;;;;;5155480;27;20061;-67
2023/06/11 06:38:38;;;;;;;14.98;8.55;;;27.70;96.50;;;;;;5155379;27;20046;-68
2023/06/11 06:41:04;;;;;;;12.52;9.93;;;27.90;96.00;;;;;;5155372;27;20122;-69
2023/06/11 06:43:29;;;;;;;12.57;9.05;;;28.30;95.50;;;;;;5155395;27;20467;-69
2023/06/11 06:45:55;;;;;;;10.57;8.70;;;28.50;94.80;;;;;;5155549;27;20522;-68
2023/06/11 06:48:22;;;;;;;10.05;9.05;;;28.60;94.90;;;;;;5155323;27;20390;-67
2023/06/11 06:50:48;;;;;;;12.00;9.35;;;28.70;94.10;;;;;;5155176;27;20047;-68
2023/06/11 06:53:14;;;;;;;11.57;8.00;;;28.90;94.00;;;;;;5155039;27;20046;-69
2023/06/11 06:55:40;;;;;;;9.93;8.93;;;29.10;93.60;;;;;;5155352;27;20175;-68
2023/06/11 06:58:06;;;;;;;11.45;10.45;;;29.20;93.40;;;;;;5136587;27;20095;-68
2023/06/11 07:00:32;;;;;;;10.85;9.13;;;29.30;92.80;;;;;;5154956;27;20038;-68
2023/06/11 07:02:58;;;;;;;10.75;9.57;;;29.50;92.50;;;;;;5155338;27;20489;-70
2023/06/11 07:05:23;;;;;;;10.68;8.63;;;29.60;92.00;;;;;;5154919;27;20117;-67
2023/06/11 07:07:49;;;;;;;9.23;8.43;;;29.80;91.80;;;;;;5136706;27;20092;-67
2023/06/11 07:10:15;;;;;;;9.52;8.48;;;30.10;91.70;;;;;;5154714;27;20045;-68
2023/06/11 07:12:40;;;;;;;9.48;7.97;;;30.60;91.70;;;;;;5155227;27;20039;-68
2023/06/11 07:15:07;;;;;;;9.38;8.38;;;30.80;91.40;;;;;;5155115;27;20035;-68
2023/06/11 07:17:33;;;;;;;10.57;9.07;;;30.90;91.00;;;;;;5154902;27;20114;-69
2023/06/11 07:19:58;;;;;;;9.77;8.88;;;30.90;90.50;;;;;;5135827;27;20085;-68
2023/06/11 07:22:24;;;;;;;9.65;8.63;;;31.00;90.60;;;;;;5154865;27;20034;-71
2023/06/11 07:24:50;;;;;;;10.32;8.85;;;31.20;90.20;;;;;;5154249;27;20127;-68
2023/06/11 07:27:15;;;;;;;10.85;8.23;;;31.30;90.00;;;;;;5136951;27;20050;-68
2023/06/11 07:29:41;;;;;;;11.10;9.27;;;31.50;89.40;;;;;;5136633;27;20051;-67
2023/06/11 07:32:08;;;;;;;10.35;9.30;;;31.60;88.70;;;;;;5136232;27;20099;-68
2023/06/11 07:34:33;;;;;;;10.40;9.25;;;31.70;88.60;;;;;;5136535;27;20419;-68
2023/06/11 07:36:59;;;;;;;10.10;9.10;;;31.90;88.40;;;;;;5154415;27;20042;-68
2023/06/11 07:39:25;;;;;;;9.52;8.55;;;31.80;87.30;;;;;;5136039;27;20045;-68
2023/06/11 07:41:51;;;;;;;9.52;8.55;;;31.90;87.20;;;;;;5154541;27;20483;-68
2023/06/11 07:44:17;;;;;;;11.95;9.25;;;32.10;86.90;;;;;;5154182;27;20039;-68
2023/06/11 07:46:44;;;;;;;11.82;8.93;;;32.10;86.80;;;;;;5154306;27;20047;-67
2023/06/11 07:49:10;;;;;;;9.02;7.68;;;32.40;86.40;;;;;;5136280;27;20042;-68
2023/06/11 07:51:36;;;;;;;13.75;8.60;;;32.60;85.10;;;;;;5135619;27;20132;-68
2023/06/11 07:54:04;;;;;;;8.52;7.82;;;32.80;84.40;;;;;;5135877;27;20050;-67
2023/06/11 07:56:30;;;;;;;9.27;8.48;;;33.10;84.40;;;;;;5154455;27;20104;-67
2023/06/11 07:58:56;;;;;;;9.77;8.20;;;33.00;84.00;;;;;;5154097;27;20478;-67
2023/06/11 08:01:21;;;;;;;10.45;8.82;;;33.00;83.80;;;;;;5154108;27;20080;-67
2023/06/11 08:03:47;;;;;;;9.63;8.50;;;32.90;83.90;;;;;;5154240;27;20142;-68
2023/06/11 08:06:13;;;;;;;9.18;8.27;;;33.10;83.60;;;;;;5154090;27;20038;-67
2023/06/11 08:08:39;;;;;;;10.50;9.55;;;33.00;82.50;;;;;;5135623;27;20046;-67
2023/06/11 08:11:04;;;;;;;8.25;7.57;;;33.00;82.20;;;;;;5135820;27;20051;-67
2023/06/11 08:13:30;;;;;;;10.23;7.55;;;33.10;81.90;;;;;;5154433;27;20043;-68
2023/06/11 08:15:56;;;;;;;10.35;8.00;;;33.30;81.70;;;;;;5154131;27;20122;-67
2023/06/11 08:18:22;;;;;;;9.05;8.20;;;33.30;81.40;;;;;;5153921;27;20039;-68
2023/06/11 08:20:47;;;;;;;8.32;7.57;;;33.20;80.80;;;;;;5154259;27;20046;-65
2023/06/11 08:23:13;;;;;;;10.23;8.40;;;33.30;81.00;;;;;;5153764;27;20065;-66
2023/06/11 08:25:39;;;;;;;9.18;7.65;;;33.40;81.40;;;;;;5153611;27;20135;-65
2023/06/11 08:28:05;;;;;;;8.85;8.05;;;33.80;81.50;;;;;;5154122;27;20047;-66
2023/06/11 08:30:31;;;;;;;8.90;7.95;;;33.60;80.70;;;;;;5157229;27;20501;-66
2023/06/11 08:32:57;;;;;;;8.90;8.10;;;33.70;80.80;;;;;;5139651;27;20054;-66
2023/06/11 08:35:22;;;;;;;10.00;8.13;;;33.60;80.20;;;;;;5158220;27;20046;-66
2023/06/11 08:37:48;;;;;;;8.27;7.47;;;33.60;80.20;;;;;;5139983;27;20058;-67
2023/06/11 08:40:14;;;;;;;8.32;7.38;;;33.50;79.40;;;;;;5158312;27;20082;-66
2023/06/11 08:42:40;;;;;;;8.23;7.32;;;33.60;79.80;;;;;;5157660;27;20525;-68
2023/06/11 08:45:06;;;;;;;8.52;7.80;;;33.60;79.40;;;;;;5157691;27;20050;-67
2023/06/11 08:47:37;;;;;;;9.25;8.27;;;33.80;79.40;;;;;;5157749;27;20049;-67
2023/06/11 08:50:03;;;;;;;8.68;7.78;;;33.70;78.70;;;;;;5157937;27;20470;-67
2023/06/11 08:52:33;;;;;;;8.18;7.47;;;33.80;79.30;;;;;;5139171;27;20046;-67
2023/06/11 08:54:59;;;;;;;10.07;7.63;;;33.80;79.50;;;;;;5158175;27;20098;-67
2023/06/11 08:57:25;;;;;;;9.15;7.47;;;33.90;79.00;;;;;;5157407;27;20130;-67
2023/06/11 08:59:51;;;;;;;8.18;6.95;;;34.00;78.40;;;;;;5157438;27;20114;-68
2023/06/11 09:02:17;;;;;;;8.27;7.47;;;33.90;77.30;;;;;;5157397;27;20047;-67
2023/06/11 09:04:44;;;;;;;8.55;7.78;;;33.90;77.50;;;;;;5121850;27;20050;-68
2023/06/11 09:07:10;;;;;;;8.02;7.22;;;34.10;77.80;;;;;;5157685;27;20047;-68
2023/06/11 09:09:36;;;;;;;6.93;6.28;;;34.10;77.70;;;;;;5138769;27;20042;-68
2023/06/11 09:12:08;;;;;;;8.10;7.30;;;34.40;78.00;;;;;;5157527;27;20488;-66
2023/06/11 09:14:34;;;;;;;8.70;6.93;;;34.60;77.10;;;;;;5157788;27;20046;-67
2023/06/11 09:16:59;;;;;;;9.32;6.97;;;34.80;77.80;;;;;;5157193;27;20359;-67
2023/06/11 09:19:25;;;;;;;8.50;7.60;;;34.70;76.60;;;;;;5139158;27;20126;-67
2023/06/11 09:21:52;;;;;;;7.50;6.35;;;34.40;76.30;;;;;;5156963;27;20536;-66
2023/06/11 09:24:19;;;;;;;9.25;7.30;;;34.40;76.90;;;;;;5157329;27;20042;-67
2023/06/11 09:26:54;;;;;;;11.85;7.35;;;34.70;76.50;;;;;;5156866;27;20042;-69
2023/06/11 09:29:21;;;;;;;7.60;7.00;;;34.70;76.00;;;;;;5156892;27;20042;-67
2023/06/11 09:31:47;;;;;;;8.75;7.35;;;34.50;76.20;;;;;;5157373;27;20074;-67
2023/06/11 09:34:17;;;;;;;8.32;7.38;;;34.40;75.40;;;;;;5156751;27;20146;-68
2023/06/11 09:36:47;;;;;;;7.88;6.95;;;34.50;75.40;;;;;;5122474;27;20039;-67
2023/06/11 09:39:15;;;;;;;7.85;7.15;;;34.50;75.30;;;;;;5138359;27;20414;-67
2023/06/11 09:41:51;;;;;;;9.57;6.53;;;34.60;75.60;;;;;;5157045;27;20475;-67
2023/06/11 09:44:18;;;;;;;8.73;7.55;;;34.70;75.80;;;;;;5156993;27;20038;-67
2023/06/11 09:46:47;;;;;;;7.93;7.13;;;34.60;75.40;;;;;;5156624;27;20057;-66
2023/06/11 09:49:15;;;;;;;8.95;7.13;;;34.60;74.60;;;;;;5121010;27;20054;-68
2023/06/11 09:51:42;;;;;;;8.43;6.95;;;34.70;74.60;;;;;;5138133;27;20043;-67
2023/06/11 09:54:08;;;;;;;8.35;7.55;;;34.60;74.10;;;;;;5156320;27;20053;-67
2023/06/11 09:56:37;;;;;;;8.02;7.03;;;34.60;73.80;;;;;;5156243;27;20084;-68
2023/06/11 09:59:04;;;;;;;9.02;7.50;;;34.40;73.40;;;;;;5156320;27;20085;-67
2023/06/11 10:01:31;;;;;;;7.53;6.47;;;34.50;74.30;;;;;;5156125;27;20043;-66
2023/06/11 10:03:58;;;;;;;7.65;6.95;;;34.30;74.60;;;;;;5137383;27;20512;-68
2023/06/11 10:06:29;;;;;;;7.63;6.93;;;34.20;74.50;;;;;;5156107;27;20038;-68
2023/06/11 10:08:59;;;;;;;8.73;7.50;;;34.30;74.80;;;;;;5138425;27;20107;-69
2023/06/11 10:11:28;;;;;;;7.32;6.53;;;34.40;74.90;;;;;;5137950;27;20042;-69
2023/06/11 10:13:59;;;;;;;7.40;6.80;;;34.40;74.20;;;;;;5156135;27;20077;-68
2023/06/11 10:16:27;;;;;;;7.45;6.72;;;34.40;73.40;;;;;;5155988;27;20050;-69
2023/06/11 10:19:09;;;;;;;8.00;7.30;;;34.40;74.00;;;;;;5155972;27;20242;-68
2023/06/11 10:21:39;;;;;;;;;;;34.30;73.80;;;;;;5156122;27;20078;-69
2023/06/11 10:24:06;;;;;;;7.57;6.90;;;34.00;73.40;;;;;;5120231;27;19919;-68
2023/06/11 10:26:34;;;;;;;19.85;8.15;;;34.20;74.30;;;;;;5137997;27;20035;-69
2023/06/11 10:29:00;;;;;;;7.57;6.90;;;34.40;74.40;;;;;;5155775;27;20082;-68
2023/06/11 10:31:35;;;;;;;7.20;6.50;;;34.30;74.30;;;;;;5137354;27;20091;-68
2023/06/11 10:34:03;;;;;;;6.80;6.18;;;34.20;73.90;;;;;;5155640;27;20042;-68
2023/06/11 10:36:37;;;;;;;7.90;7.07;;;33.90;74.10;;;;;;5155981;27;20063;-68
2023/06/11 10:39:05;;;;;;;7.43;5.93;;;34.10;73.40;;;;;;5155728;27;20099;-68
2023/06/11 10:41:31;;;;;;;8.27;6.68;;;34.10;72.40;;;;;;5155428;27;20089;-68
2023/06/11 10:43:59;;;;;;;6.57;6.00;;;34.00;71.20;;;;;;5136802;27;20043;-68
2023/06/11 10:46:25;;;;;;;6.70;6.15;;;34.10;71.30;;;;;;5120079;27;20047;-70
2023/06/11 10:48:52;;;;;;;7.20;6.45;;;34.10;70.10;;;;;;5155724;27;20039;-67
2023/06/11 10:51:19;;;;;;;9.88;6.53;;;34.10;70.40;;;;;;5155358;27;20058;-68
2023/06/11 10:53:58;;;;;;;7.07;5.38;;;34.10;70.50;;;;;;5154707;27;20092;-67
2023/06/11 10:56:25;;;;;;;5.93;5.40;;;34.40;70.20;;;;;;5119243;27;20046;-70
2023/06/11 10:58:53;;;;;;;6.18;5.00;;;34.40;70.00;;;;;;5155011;27;20074;-67
2023/06/11 11:01:22;;;;;;;6.55;5.28;;;34.20;68.70;;;;;;5155068;27;20042;-67
2023/06/11 11:03:52;;;;;;;5.82;5.28;;;34.10;68.20;;;;;;5136520;27;20051;-67
2023/06/11 11:06:28;;;;;;;6.68;5.97;;;33.90;67.70;;;;;;5154900;27;20633;-67
2023/06/11 11:08:55;;;;;;;6.53;5.85;;;33.80;68.30;;;;;;5136399;27;20172;-68
2023/06/11 11:11:22;;;;;;;6.75;5.82;;;33.70;67.90;;;;;;5154896;27;20107;-67
2023/06/11 11:13:50;;;;;;;6.07;5.57;;;33.60;67.70;;;;;;5136763;27;20085;-67
2023/06/11 11:16:18;;;;;;;7.25;6.00;;;33.50;67.70;;;;;;5155205;27;20042;-68
2023/06/11 11:18:46;;;;;;;8.90;7.10;;;33.30;67.50;;;;;;5154627;27;20043;-67
2023/06/11 11:21:12;;;;;;;6.55;5.97;;;33.10;67.20;;;;;;5154532;27;20042;-67
2023/06/11 11:23:38;;;;;;;6.65;6.03;;;32.90;66.50;;;;;;5154864;27;20043;-67
2023/06/11 11:26:04;;;;;;;7.22;6.28;;;32.60;66.20;;;;;;5154660;27;20057;-67
2023/06/11 11:28:32;;;;;;;7.45;5.63;;;32.60;66.90;;;;;;5154929;27;20089;-68
2023/06/11 11:30:59;;;;;;;6.68;6.07;;;32.60;67.00;;;;;;5154461;27;20130;-69
2023/06/11 11:33:27;;;;;;;5.55;5.15;;;32.70;67.10;;;;;;5154436;27;20074;-68
2023/06/11 11:35:54;;;;;;;7.65;6.07;;;32.60;67.20;;;;;;5136176;27;20047;-67
2023/06/11 11:38:20;;;;;;;6.82;6.18;;;32.60;66.40;;;;;;5154134;27;20471;-69
2023/06/11 11:40:54;;;;;;;7.43;6.80;;;32.70;66.60;;;;;;5135897;27;20081;-67
2023/06/11 11:43:20;;;;;;;6.63;6.03;;;32.70;67.40;;;;;;5154236;27;20122;-67
2023/06/11 11:45:47;;;;;;;8.43;6.15;;;32.60;66.40;;;;;;5154834;27;20127;-68
2023/06/11 11:48:15;;;;;;;7.75;6.47;;;32.70;66.00;;;;;;5135669;27;20061;-67
2023/06/11 11:50:41;;;;;;;7.90;7.07;;;32.60;65.60;;;;;;5136410;27;20174;-67
2023/06/11 11:53:15;;;;;;;8.07;6.82;;;32.60;66.00;;;;;;5135597;27;20048;-68
2023/06/11 11:55:45;;;;;;;6.57;5.97;;;32.60;66.40;;;;;;5154234;27;20090;-66
2023/06/11 11:58:12;;;;;;;8.27;7.50;;;32.70;66.20;;;;;;5154183;27;20122;-67
2023/06/11 12:00:48;;;;;;;7.63;6.88;;;32.60;65.00;;;;;;5154023;27;20055;-68
2023/06/11 12:03:17;;;;;;;6.60;6.00;;;32.70;65.40;;;;;;5153408;27;20051;-68
2023/06/11 12:05:42;;;;;;;7.30;6.60;;;32.70;64.70;;;;;;5154476;27;20057;-69
2023/06/11 12:08:08;;;;;;;7.90;6.07;;;32.80;64.70;;;;;;5154157;27;20459;-67
2023/06/11 12:10:34;;;;;;;10.82;5.53;;;32.70;63.90;;;;;;5154000;27;20493;-68
2023/06/11 12:13:00;;;;;;;6.78;5.95;;;32.50;63.70;;;;;;5154304;27;20078;-68
2023/06/11 12:15:27;;;;;;;7.57;6.55;;;32.30;64.30;;;;;;5154250;27;20049;-70
2023/06/11 12:17:53;;;;;;;8.77;6.20;;;32.30;64.00;;;;;;5154012;27;20046;-67
2023/06/11 12:20:21;;;;;;;9.40;5.75;;;32.40;64.10;;;;;;5153886;27;20047;-68
2023/06/11 12:22:47;;;;;;;9.00;7.15;;;32.30;64.10;;;;;;5153879;27;20050;-69
2023/06/11 12:25:14;;;;;;;7.53;6.53;;;32.40;63.90;;;;;;5153879;27;20115;-68
2023/06/11 12:27:39;;;;;;;6.65;6.05;;;32.50;63.90;;;;;;5135560;27;20042;-69
2023/06/11 12:30:06;;;;;;;9.10;5.97;;;32.60;63.80;;;;;;5154434;27;20564;-71
2023/06/11 12:32:32;;;;;;;9.30;6.20;;;32.60;63.80;;;;;;5135579;27;20046;-69
2023/06/11 12:34:58;;;;;;;7.18;6.50;;;32.50;62.60;;;;;;5136138;27;20141;-68
2023/06/11 12:37:24;;;;;;;6.43;5.93;;;32.50;63.00;;;;;;5153803;27;20464;-68